sensor_id;sensor_type;location;lat;lon;timestamp;temperature;humidity
68977;SHT31;56029;52.568;13.588;2022-07-06T00:01:06;15.45;68.86
68977;SHT31;56029;52.568;13.588;2022-07-06T00:03:32;15.40;69.09
68977;SHT31;56029;52.568;13.588;2022-07-06T00:05:57;15.37;69.24
68977;SHT31;56029;52.568;13.588;2022-07-06T00:08:23;15.33;69.57
68977;SHT31;56029;52.568;13.588;2022-07-06T00:10:48;15.30;69.71
68977;SHT31;56029;52.568;13.588;2022-07-06T00:13:14;15.28;69.93
68977;SHT31;56029;52.568;13.588;2022-07-06T00:15:39;15.30;70.15
68977;SHT31;56029;52.568;13.588;2022-07-06T00:18:05;15.26;70.25
68977;SHT31;56029;52.568;13.588;2022-07-06T00:20:30;15.20;70.51
68977;SHT31;56029;52.568;13.588;2022-07-06T00:22:56;15.21;70.67
68977;SHT31;56029;52.568;13.588;2022-07-06T00:25:22;15.20;70.49
68977;SHT31;56029;52.568;13.588;2022-07-06T00:27:47;15.20;70.59
68977;SHT31;56029;52.568;13.588;2022-07-06T00:30:13;15.16;70.83
68977;SHT31;56029;52.568;13.588;2022-07-06T00:32:38;15.07;70.96
68977;SHT31;56029;52.568;13.588;2022-07-06T00:35:04;15.02;71.05
68977;SHT31;56029;52.568;13.588;2022-07-06T00:37:30;14.99;71.70
68977;SHT31;56029;52.568;13.588;2022-07-06T00:39:56;14.93;71.37
68977;SHT31;56029;52.568;13.588;2022-07-06T00:42:21;14.92;72.26
68977;SHT31;56029;52.568;13.588;2022-07-06T00:44:46;14.89;71.99
68977;SHT31;56029;52.568;13.588;2022-07-06T00:47:12;14.83;72.44
68977;SHT31;56029;52.568;13.588;2022-07-06T00:49:37;14.82;72.14
68977;SHT31;56029;52.568;13.588;2022-07-06T00:52:22;14.75;72.24
68977;SHT31;56029;52.568;13.588;2022-07-06T00:54:47;14.71;71.86
68977;SHT31;56029;52.568;13.588;2022-07-06T00:57:13;14.66;72.18
68977;SHT31;56029;52.568;13.588;2022-07-06T00:59:38;14.52;72.48
68977;SHT31;56029;52.568;13.588;2022-07-06T01:02:04;14.52;72.64
68977;SHT31;56029;52.568;13.588;2022-07-06T01:04:29;14.39;72.92
68977;SHT31;56029;52.568;13.588;2022-07-06T01:06:56;14.25;73.13
68977;SHT31;56029;52.568;13.588;2022-07-06T01:09:22;14.20;73.28
68977;SHT31;56029;52.568;13.588;2022-07-06T01:11:48;14.17;73.30
68977;SHT31;56029;52.568;13.588;2022-07-06T01:14:14;14.13;73.51
68977;SHT31;56029;52.568;13.588;2022-07-06T01:16:40;14.13;73.43
68977;SHT31;56029;52.568;13.588;2022-07-06T01:19:05;14.11;73.48
68977;SHT31;56029;52.568;13.588;2022-07-06T01:21:31;14.13;73.64
68977;SHT31;56029;52.568;13.588;2022-07-06T01:23:56;14.10;73.83
68977;SHT31;56029;52.568;13.588;2022-07-06T01:26:22;14.08;74.14
68977;SHT31;56029;52.568;13.588;2022-07-06T01:28:51;14.01;74.34
68977;SHT31;56029;52.568;13.588;2022-07-06T01:31:22;13.96;74.63
68977;SHT31;56029;52.568;13.588;2022-07-06T01:33:49;13.94;74.66
68977;SHT31;56029;52.568;13.588;2022-07-06T01:36:15;13.90;74.90
68977;SHT31;56029;52.568;13.588;2022-07-06T01:38:46;13.93;74.89
68977;SHT31;56029;52.568;13.588;2022-07-06T01:41:11;13.96;74.80
68977;SHT31;56029;52.568;13.588;2022-07-06T01:43:37;13.90;74.94
68977;SHT31;56029;52.568;13.588;2022-07-06T01:46:03;13.93;74.98
68977;SHT31;56029;52.568;13.588;2022-07-06T01:48:28;13.94;75.01
68977;SHT31;56029;52.568;13.588;2022-07-06T01:50:54;13.97;74.94
68977;SHT31;56029;52.568;13.588;2022-07-06T01:53:19;14.03;74.89
68977;SHT31;56029;52.568;13.588;2022-07-06T01:55:45;14.04;74.96
68977;SHT31;56029;52.568;13.588;2022-07-06T01:58:10;13.98;75.11
68977;SHT31;56029;52.568;13.588;2022-07-06T02:00:36;13.94;75.19
68977;SHT31;56029;52.568;13.588;2022-07-06T02:03:01;13.96;75.13
68977;SHT31;56029;52.568;13.588;2022-07-06T02:05:27;13.97;75.29
68977;SHT31;56029;52.568;13.588;2022-07-06T02:07:52;14.03;75.27
68977;SHT31;56029;52.568;13.588;2022-07-06T02:10:18;14.04;75.12
68977;SHT31;56029;52.568;13.588;2022-07-06T02:12:43;14.04;75.04
68977;SHT31;56029;52.568;13.588;2022-07-06T02:15:09;14.06;75.12
68977;SHT31;56029;52.568;13.588;2022-07-06T02:17:34;14.11;74.77
68977;SHT31;56029;52.568;13.588;2022-07-06T02:20:00;14.15;74.69
68977;SHT31;56029;52.568;13.588;2022-07-06T02:22:26;14.17;74.64
68977;SHT31;56029;52.568;13.588;2022-07-06T02:24:51;14.22;74.31
68977;SHT31;56029;52.568;13.588;2022-07-06T02:27:17;14.28;74.07
68977;SHT31;56029;52.568;13.588;2022-07-06T02:29:42;14.34;73.92
68977;SHT31;56029;52.568;13.588;2022-07-06T02:32:08;14.35;73.82
68977;SHT31;56029;52.568;13.588;2022-07-06T02:34:33;14.41;73.54
68977;SHT31;56029;52.568;13.588;2022-07-06T02:36:59;14.46;73.49
68977;SHT31;56029;52.568;13.588;2022-07-06T02:39:25;14.55;74.11
68977;SHT31;56029;52.568;13.588;2022-07-06T02:41:51;14.68;74.11
68977;SHT31;56029;52.568;13.588;2022-07-06T02:44:16;14.76;74.01
68977;SHT31;56029;52.568;13.588;2022-07-06T02:46:42;14.66;74.84
68977;SHT31;56029;52.568;13.588;2022-07-06T02:49:07;14.52;76.89
68977;SHT31;56029;52.568;13.588;2022-07-06T02:51:33;14.31;78.95
68977;SHT31;56029;52.568;13.588;2022-07-06T02:53:58;14.24;79.06
68977;SHT31;56029;52.568;13.588;2022-07-06T02:56:24;14.15;80.73
68977;SHT31;56029;52.568;13.588;2022-07-06T02:58:49;14.13;82.28
68977;SHT31;56029;52.568;13.588;2022-07-06T03:01:15;14.15;83.14
68977;SHT31;56029;52.568;13.588;2022-07-06T03:03:40;14.11;81.97
68977;SHT31;56029;52.568;13.588;2022-07-06T03:06:06;14.10;81.85
68977;SHT31;56029;52.568;13.588;2022-07-06T03:08:31;14.08;83.17
68977;SHT31;56029;52.568;13.588;2022-07-06T03:10:57;14.04;83.18
68977;SHT31;56029;52.568;13.588;2022-07-06T03:13:22;14.00;82.77
68977;SHT31;56029;52.568;13.588;2022-07-06T03:15:48;14.00;84.43
68977;SHT31;56029;52.568;13.588;2022-07-06T03:18:14;13.97;83.94
68977;SHT31;56029;52.568;13.588;2022-07-06T03:20:39;14.00;82.82
68977;SHT31;56029;52.568;13.588;2022-07-06T03:23:04;14.04;84.86
68977;SHT31;56029;52.568;13.588;2022-07-06T03:25:30;14.10;84.98
68977;SHT31;56029;52.568;13.588;2022-07-06T03:27:55;14.11;84.93
68977;SHT31;56029;52.568;13.588;2022-07-06T03:30:21;14.10;85.13
68977;SHT31;56029;52.568;13.588;2022-07-06T03:32:46;14.08;86.13
68977;SHT31;56029;52.568;13.588;2022-07-06T03:35:12;14.13;87.29
68977;SHT31;56029;52.568;13.588;2022-07-06T03:37:37;14.13;87.49
68977;SHT31;56029;52.568;13.588;2022-07-06T03:40:03;14.07;86.99
68977;SHT31;56029;52.568;13.588;2022-07-06T03:42:29;14.04;87.77
68977;SHT31;56029;52.568;13.588;2022-07-06T03:44:54;14.04;86.50
68977;SHT31;56029;52.568;13.588;2022-07-06T03:47:20;14.06;86.06
68977;SHT31;56029;52.568;13.588;2022-07-06T03:49:45;14.07;85.90
68977;SHT31;56029;52.568;13.588;2022-07-06T03:52:11;14.06;84.85
68977;SHT31;56029;52.568;13.588;2022-07-06T03:54:36;14.06;85.79
68977;SHT31;56029;52.568;13.588;2022-07-06T03:57:02;14.04;85.04
68977;SHT31;56029;52.568;13.588;2022-07-06T03:59:27;14.06;85.16
68977;SHT31;56029;52.568;13.588;2022-07-06T04:01:53;14.04;86.68
68977;SHT31;56029;52.568;13.588;2022-07-06T04:04:18;14.01;85.23
68977;SHT31;56029;52.568;13.588;2022-07-06T04:06:44;14.03;85.74
68977;SHT31;56029;52.568;13.588;2022-07-06T04:09:10;14.10;85.25
68977;SHT31;56029;52.568;13.588;2022-07-06T04:11:36;14.17;84.77
68977;SHT31;56029;52.568;13.588;2022-07-06T04:14:01;14.18;84.16
68977;SHT31;56029;52.568;13.588;2022-07-06T04:16:27;14.22;84.51
68977;SHT31;56029;52.568;13.588;2022-07-06T04:18:53;14.27;83.86
68977;SHT31;56029;52.568;13.588;2022-07-06T04:21:18;14.45;83.67
68977;SHT31;56029;52.568;13.588;2022-07-06T04:23:44;14.44;83.19
68977;SHT31;56029;52.568;13.588;2022-07-06T04:26:09;14.48;83.26
68977;SHT31;56029;52.568;13.588;2022-07-06T04:28:35;14.68;82.06
68977;SHT31;56029;52.568;13.588;2022-07-06T04:31:00;14.99;81.60
68977;SHT31;56029;52.568;13.588;2022-07-06T04:33:26;15.31;79.83
68977;SHT31;56029;52.568;13.588;2022-07-06T04:35:51;15.63;77.31
68977;SHT31;56029;52.568;13.588;2022-07-06T04:38:17;15.63;78.57
68977;SHT31;56029;52.568;13.588;2022-07-06T04:40:43;15.50;77.59
68977;SHT31;56029;52.568;13.588;2022-07-06T04:43:11;15.79;76.03
68977;SHT31;56029;52.568;13.588;2022-07-06T04:45:37;16.05;75.66
68977;SHT31;56029;52.568;13.588;2022-07-06T04:48:03;15.68;77.73
68977;SHT31;56029;52.568;13.588;2022-07-06T04:50:28;15.44;77.49
68977;SHT31;56029;52.568;13.588;2022-07-06T04:52:54;15.16;78.31
68977;SHT31;56029;52.568;13.588;2022-07-06T04:55:19;14.89;79.20
68977;SHT31;56029;52.568;13.588;2022-07-06T04:57:45;15.47;77.41
68977;SHT31;56029;52.568;13.588;2022-07-06T05:00:11;16.23;74.64
68977;SHT31;56029;52.568;13.588;2022-07-06T05:02:37;16.40;73.17
68977;SHT31;56029;52.568;13.588;2022-07-06T05:05:03;17.02;71.90
68977;SHT31;56029;52.568;13.588;2022-07-06T05:07:28;17.15;71.76
68977;SHT31;56029;52.568;13.588;2022-07-06T05:09:56;17.05;70.58
68977;SHT31;56029;52.568;13.588;2022-07-06T05:12:21;17.28;70.26
68977;SHT31;56029;52.568;13.588;2022-07-06T05:14:47;17.54;69.77
68977;SHT31;56029;52.568;13.588;2022-07-06T05:17:12;17.40;69.26
68977;SHT31;56029;52.568;13.588;2022-07-06T05:19:38;16.34;72.38
68977;SHT31;56029;52.568;13.588;2022-07-06T05:22:03;16.16;74.07
68977;SHT31;56029;52.568;13.588;2022-07-06T05:24:29;16.05;73.55
68977;SHT31;56029;52.568;13.588;2022-07-06T05:26:55;16.14;73.16
68977;SHT31;56029;52.568;13.588;2022-07-06T05:29:20;16.43;71.98
68977;SHT31;56029;52.568;13.588;2022-07-06T05:31:46;16.39;71.57
68977;SHT31;56029;52.568;13.588;2022-07-06T05:34:11;16.14;72.74
68977;SHT31;56029;52.568;13.588;2022-07-06T05:36:37;15.99;73.11
68977;SHT31;56029;52.568;13.588;2022-07-06T05:39:02;15.95;72.77
68977;SHT31;56029;52.568;13.588;2022-07-06T05:41:28;15.89;72.12
68977;SHT31;56029;52.568;13.588;2022-07-06T05:43:53;15.73;71.57
68977;SHT31;56029;52.568;13.588;2022-07-06T05:46:19;15.78;72.61
68977;SHT31;56029;52.568;13.588;2022-07-06T05:48:44;15.81;71.34
68977;SHT31;56029;52.568;13.588;2022-07-06T05:51:28;15.86;71.07
68977;SHT31;56029;52.568;13.588;2022-07-06T05:53:53;15.88;71.86
68977;SHT31;56029;52.568;13.588;2022-07-06T05:56:19;15.93;72.14
68977;SHT31;56029;52.568;13.588;2022-07-06T05:58:44;16.02;71.76
68977;SHT31;56029;52.568;13.588;2022-07-06T06:01:10;16.09;71.74
68977;SHT31;56029;52.568;13.588;2022-07-06T06:03:36;16.03;71.08
68977;SHT31;56029;52.568;13.588;2022-07-06T06:06:02;16.05;71.75
68977;SHT31;56029;52.568;13.588;2022-07-06T06:08:27;16.21;71.43
68977;SHT31;56029;52.568;13.588;2022-07-06T06:10:53;16.20;70.91
68977;SHT31;56029;52.568;13.588;2022-07-06T06:13:19;16.13;70.52
68977;SHT31;56029;52.568;13.588;2022-07-06T06:15:44;16.09;70.17
68977;SHT31;56029;52.568;13.588;2022-07-06T06:18:10;16.13;70.59
68977;SHT31;56029;52.568;13.588;2022-07-06T06:20:36;16.24;71.04
68977;SHT31;56029;52.568;13.588;2022-07-06T06:23:02;16.37;71.19
68977;SHT31;56029;52.568;13.588;2022-07-06T06:25:31;16.46;70.48
68977;SHT31;56029;52.568;13.588;2022-07-06T06:27:57;16.43;68.80
68977;SHT31;56029;52.568;13.588;2022-07-06T06:30:23;16.56;70.00
68977;SHT31;56029;52.568;13.588;2022-07-06T06:32:48;16.72;68.83
68977;SHT31;56029;52.568;13.588;2022-07-06T06:35:14;16.75;68.26
68977;SHT31;56029;52.568;13.588;2022-07-06T06:37:40;16.91;68.08
68977;SHT31;56029;52.568;13.588;2022-07-06T06:40:06;16.96;66.81
68977;SHT31;56029;52.568;13.588;2022-07-06T06:42:34;16.99;66.59
68977;SHT31;56029;52.568;13.588;2022-07-06T06:45:00;16.99;66.72
68977;SHT31;56029;52.568;13.588;2022-07-06T06:47:26;16.74;66.02
68977;SHT31;56029;52.568;13.588;2022-07-06T06:49:51;16.75;66.54
68977;SHT31;56029;52.568;13.588;2022-07-06T06:52:17;16.82;65.65
68977;SHT31;56029;52.568;13.588;2022-07-06T06:54:42;17.02;65.20
68977;SHT31;56029;52.568;13.588;2022-07-06T06:57:08;17.18;65.05
68977;SHT31;56029;52.568;13.588;2022-07-06T06:59:33;17.28;63.07
68977;SHT31;56029;52.568;13.588;2022-07-06T07:01:59;16.92;63.97
68977;SHT31;56029;52.568;13.588;2022-07-06T07:04:24;16.96;65.11
68977;SHT31;56029;52.568;13.588;2022-07-06T07:06:50;16.82;66.26
68977;SHT31;56029;52.568;13.588;2022-07-06T07:09:15;17.04;66.58
68977;SHT31;56029;52.568;13.588;2022-07-06T07:11:41;17.19;65.28
68977;SHT31;56029;52.568;13.588;2022-07-06T07:14:06;17.29;64.16
68977;SHT31;56029;52.568;13.588;2022-07-06T07:16:32;17.54;63.89
68977;SHT31;56029;52.568;13.588;2022-07-06T07:18:58;17.56;61.97
68977;SHT31;56029;52.568;13.588;2022-07-06T07:21:24;17.40;62.93
68977;SHT31;56029;52.568;13.588;2022-07-06T07:23:49;17.50;63.46
68977;SHT31;56029;52.568;13.588;2022-07-06T07:26:16;17.56;62.39
68977;SHT31;56029;52.568;13.588;2022-07-06T07:28:41;17.69;62.57
68977;SHT31;56029;52.568;13.588;2022-07-06T07:31:07;17.62;62.79
68977;SHT31;56029;52.568;13.588;2022-07-06T07:33:33;17.67;63.38
68977;SHT31;56029;52.568;13.588;2022-07-06T07:35:59;17.45;62.23
68977;SHT31;56029;52.568;13.588;2022-07-06T07:38:24;17.30;61.86
68977;SHT31;56029;52.568;13.588;2022-07-06T07:40:53;17.36;61.37
68977;SHT31;56029;52.568;13.588;2022-07-06T07:43:18;17.60;61.71
68977;SHT31;56029;52.568;13.588;2022-07-06T07:45:43;17.65;60.03
68977;SHT31;56029;52.568;13.588;2022-07-06T07:48:09;18.07;60.06
68977;SHT31;56029;52.568;13.588;2022-07-06T07:50:35;17.94;56.53
68977;SHT31;56029;52.568;13.588;2022-07-06T07:53:01;17.78;56.74
68977;SHT31;56029;52.568;13.588;2022-07-06T07:55:26;17.84;57.48
68977;SHT31;56029;52.568;13.588;2022-07-06T07:57:52;18.05;55.89
68977;SHT31;56029;52.568;13.588;2022-07-06T08:00:17;18.28;54.96
68977;SHT31;56029;52.568;13.588;2022-07-06T08:02:43;18.69;54.42
68977;SHT31;56029;52.568;13.588;2022-07-06T08:05:08;18.72;53.01
68977;SHT31;56029;52.568;13.588;2022-07-06T08:07:38;18.32;54.32
68977;SHT31;56029;52.568;13.588;2022-07-06T08:10:04;18.18;55.13
68977;SHT31;56029;52.568;13.588;2022-07-06T08:12:29;18.05;56.02
68977;SHT31;56029;52.568;13.588;2022-07-06T08:14:55;18.05;56.82
68977;SHT31;56029;52.568;13.588;2022-07-06T08:17:21;18.14;57.32
68977;SHT31;56029;52.568;13.588;2022-07-06T08:19:47;17.86;57.52
68977;SHT31;56029;52.568;13.588;2022-07-06T08:22:12;17.97;57.49
68977;SHT31;56029;52.568;13.588;2022-07-06T08:24:38;18.05;57.50
68977;SHT31;56029;52.568;13.588;2022-07-06T08:27:03;18.19;57.80
68977;SHT31;56029;52.568;13.588;2022-07-06T08:29:30;18.18;58.09
68977;SHT31;56029;52.568;13.588;2022-07-06T08:31:56;18.15;58.54
68977;SHT31;56029;52.568;13.588;2022-07-06T08:34:22;18.28;57.08
68977;SHT31;56029;52.568;13.588;2022-07-06T08:36:47;18.32;56.88
68977;SHT31;56029;52.568;13.588;2022-07-06T08:39:13;18.52;57.06
68977;SHT31;56029;52.568;13.588;2022-07-06T08:41:41;18.41;56.43
68977;SHT31;56029;52.568;13.588;2022-07-06T08:44:09;18.36;57.28
68977;SHT31;56029;52.568;13.588;2022-07-06T08:46:38;18.38;55.80
68977;SHT31;56029;52.568;13.588;2022-07-06T08:49:06;18.38;55.97
68977;SHT31;56029;52.568;13.588;2022-07-06T08:51:34;18.72;56.11
68977;SHT31;56029;52.568;13.588;2022-07-06T08:54:02;18.67;55.67
68977;SHT31;56029;52.568;13.588;2022-07-06T08:56:29;18.76;54.81
68977;SHT31;56029;52.568;13.588;2022-07-06T08:58:54;18.42;55.11
68977;SHT31;56029;52.568;13.588;2022-07-06T09:01:21;18.26;55.66
68977;SHT31;56029;52.568;13.588;2022-07-06T09:03:49;18.09;56.39
68977;SHT31;56029;52.568;13.588;2022-07-06T09:06:16;18.07;57.23
68977;SHT31;56029;52.568;13.588;2022-07-06T09:08:44;18.22;57.39
68977;SHT31;56029;52.568;13.588;2022-07-06T09:11:10;18.18;55.11
68977;SHT31;56029;52.568;13.588;2022-07-06T09:13:35;18.07;54.56
68977;SHT31;56029;52.568;13.588;2022-07-06T09:16:09;18.21;51.79
68977;SHT31;56029;52.568;13.588;2022-07-06T09:18:37;18.48;51.63
68977;SHT31;56029;52.568;13.588;2022-07-06T09:21:04;18.80;50.78
68977;SHT31;56029;52.568;13.588;2022-07-06T09:23:30;18.87;50.49
68977;SHT31;56029;52.568;13.588;2022-07-06T09:25:55;18.89;48.64
68977;SHT31;56029;52.568;13.588;2022-07-06T09:28:21;18.77;49.61
68977;SHT31;56029;52.568;13.588;2022-07-06T09:30:47;18.67;50.54
68977;SHT31;56029;52.568;13.588;2022-07-06T09:33:17;18.74;50.93
68977;SHT31;56029;52.568;13.588;2022-07-06T09:35:43;19.28;50.23
68977;SHT31;56029;52.568;13.588;2022-07-06T09:38:12;18.96;48.87
68977;SHT31;56029;52.568;13.588;2022-07-06T09:40:43;18.83;47.51
68977;SHT31;56029;52.568;13.588;2022-07-06T09:43:13;18.56;46.45
68977;SHT31;56029;52.568;13.588;2022-07-06T09:45:42;18.51;46.04
68977;SHT31;56029;52.568;13.588;2022-07-06T09:48:10;18.31;47.00
68977;SHT31;56029;52.568;13.588;2022-07-06T09:50:44;18.36;48.36
68977;SHT31;56029;52.568;13.588;2022-07-06T09:53:11;18.36;49.14
68977;SHT31;56029;52.568;13.588;2022-07-06T09:55:37;18.38;50.32
68977;SHT31;56029;52.568;13.588;2022-07-06T09:58:03;18.26;50.63
68977;SHT31;56029;52.568;13.588;2022-07-06T10:00:29;18.41;50.49
68977;SHT31;56029;52.568;13.588;2022-07-06T10:02:55;18.49;50.34
68977;SHT31;56029;52.568;13.588;2022-07-06T10:05:21;18.66;51.51
68977;SHT31;56029;52.568;13.588;2022-07-06T10:07:53;18.53;51.08
68977;SHT31;56029;52.568;13.588;2022-07-06T10:10:22;18.84;51.77
68977;SHT31;56029;52.568;13.588;2022-07-06T10:12:50;18.72;50.50
68977;SHT31;56029;52.568;13.588;2022-07-06T10:15:16;18.62;50.23
68977;SHT31;56029;52.568;13.588;2022-07-06T10:17:45;18.74;50.70
68977;SHT31;56029;52.568;13.588;2022-07-06T10:20:11;18.79;51.44
68977;SHT31;56029;52.568;13.588;2022-07-06T10:22:39;18.49;52.70
68977;SHT31;56029;52.568;13.588;2022-07-06T10:25:06;18.15;53.79
68977;SHT31;56029;52.568;13.588;2022-07-06T10:27:32;18.11;54.21
68977;SHT31;56029;52.568;13.588;2022-07-06T10:29:58;18.07;54.25
68977;SHT31;56029;52.568;13.588;2022-07-06T10:32:24;18.21;54.09
68977;SHT31;56029;52.568;13.588;2022-07-06T10:34:50;18.07;54.03
68977;SHT31;56029;52.568;13.588;2022-07-06T10:37:26;18.08;53.09
68977;SHT31;56029;52.568;13.588;2022-07-06T10:39:52;18.16;52.83
68977;SHT31;56029;52.568;13.588;2022-07-06T10:42:44;18.46;53.11
68977;SHT31;56029;52.568;13.588;2022-07-06T10:45:13;18.63;52.64
68977;SHT31;56029;52.568;13.588;2022-07-06T10:47:42;18.34;51.44
68977;SHT31;56029;52.568;13.588;2022-07-06T10:50:08;18.56;49.99
68977;SHT31;56029;52.568;13.588;2022-07-06T10:52:57;18.46;50.64
68977;SHT31;56029;52.568;13.588;2022-07-06T10:55:35;18.49;51.14
68977;SHT31;56029;52.568;13.588;2022-07-06T10:58:01;18.49;51.08
68977;SHT31;56029;52.568;13.588;2022-07-06T11:00:50;18.82;51.86
68977;SHT31;56029;52.568;13.588;2022-07-06T11:03:36;19.14;50.25
68977;SHT31;56029;52.568;13.588;2022-07-06T11:06:06;19.66;50.89
68977;SHT31;56029;52.568;13.588;2022-07-06T11:11:17;19.54;48.81
68977;SHT31;56029;52.568;13.588;2022-07-06T11:13:47;20.02;49.72
68977;SHT31;56029;52.568;13.588;2022-07-06T11:16:14;19.82;49.98
68977;SHT31;56029;52.568;13.588;2022-07-06T11:18:41;19.34;49.18
68977;SHT31;56029;52.568;13.588;2022-07-06T11:23:47;19.85;49.14
68977;SHT31;56029;52.568;13.588;2022-07-06T11:26:14;20.26;47.10
68977;SHT31;56029;52.568;13.588;2022-07-06T11:28:40;19.99;46.68
68977;SHT31;56029;52.568;13.588;2022-07-06T11:31:05;19.92;47.76
68977;SHT31;56029;52.568;13.588;2022-07-06T11:33:32;19.59;48.96
68977;SHT31;56029;52.568;13.588;2022-07-06T11:36:17;19.36;49.16
68977;SHT31;56029;52.568;13.588;2022-07-06T11:38:45;19.10;50.16
68977;SHT31;56029;52.568;13.588;2022-07-06T11:41:11;18.79;50.70
68977;SHT31;56029;52.568;13.588;2022-07-06T11:43:45;18.49;50.88
68977;SHT31;56029;52.568;13.588;2022-07-06T11:48:57;18.59;51.91
68977;SHT31;56029;52.568;13.588;2022-07-06T11:51:24;18.55;52.21
68977;SHT31;56029;52.568;13.588;2022-07-06T11:53:56;18.62;52.43
68977;SHT31;56029;52.568;13.588;2022-07-06T11:56:23;18.72;52.51
68977;SHT31;56029;52.568;13.588;2022-07-06T11:58:52;18.60;52.91
68977;SHT31;56029;52.568;13.588;2022-07-06T12:01:18;18.56;53.20
68977;SHT31;56029;52.568;13.588;2022-07-06T12:03:45;18.63;53.25
68977;SHT31;56029;52.568;13.588;2022-07-06T12:06:18;18.86;52.20
68977;SHT31;56029;52.568;13.588;2022-07-06T12:08:46;19.06;52.27
68977;SHT31;56029;52.568;13.588;2022-07-06T12:11:38;19.14;48.90
68977;SHT31;56029;52.568;13.588;2022-07-06T12:14:18;19.58;48.80
68977;SHT31;56029;52.568;13.588;2022-07-06T12:16:44;19.78;48.72
68977;SHT31;56029;52.568;13.588;2022-07-06T12:19:10;19.94;48.24
68977;SHT31;56029;52.568;13.588;2022-07-06T12:21:48;19.99;48.57
68977;SHT31;56029;52.568;13.588;2022-07-06T12:24:21;19.83;48.13
68977;SHT31;56029;52.568;13.588;2022-07-06T12:26:48;19.93;49.36
68977;SHT31;56029;52.568;13.588;2022-07-06T12:29:14;20.03;48.65
68977;SHT31;56029;52.568;13.588;2022-07-06T12:34:15;19.97;49.49
68977;SHT31;56029;52.568;13.588;2022-07-06T12:36:46;20.16;49.37
68977;SHT31;56029;52.568;13.588;2022-07-06T12:39:14;19.86;49.34
68977;SHT31;56029;52.568;13.588;2022-07-06T12:41:51;19.99;48.77
68977;SHT31;56029;52.568;13.588;2022-07-06T12:44:24;19.87;47.81
68977;SHT31;56029;52.568;13.588;2022-07-06T12:49:29;19.92;48.80
68977;SHT31;56029;52.568;13.588;2022-07-06T12:51:58;20.17;48.25
68977;SHT31;56029;52.568;13.588;2022-07-06T12:54:26;20.54;47.67
68977;SHT31;56029;52.568;13.588;2022-07-06T12:59:22;21.13;46.56
68977;SHT31;56029;52.568;13.588;2022-07-06T13:01:48;21.19;45.24
68977;SHT31;56029;52.568;13.588;2022-07-06T13:04:16;21.33;45.09
68977;SHT31;56029;52.568;13.588;2022-07-06T13:06:41;21.20;45.06
68977;SHT31;56029;52.568;13.588;2022-07-06T13:09:07;21.09;44.89
68977;SHT31;56029;52.568;13.588;2022-07-06T13:11:32;21.22;44.66
68977;SHT31;56029;52.568;13.588;2022-07-06T13:13:59;20.82;45.79
68977;SHT31;56029;52.568;13.588;2022-07-06T13:16:25;20.79;46.10
68977;SHT31;56029;52.568;13.588;2022-07-06T13:18:56;20.72;46.95
68977;SHT31;56029;52.568;13.588;2022-07-06T13:21:21;20.81;46.70
68977;SHT31;56029;52.568;13.588;2022-07-06T13:23:47;20.77;47.10
68977;SHT31;56029;52.568;13.588;2022-07-06T13:26:13;20.99;46.66
68977;SHT31;56029;52.568;13.588;2022-07-06T13:28:38;20.72;47.36
68977;SHT31;56029;52.568;13.588;2022-07-06T13:31:04;20.52;48.36
68977;SHT31;56029;52.568;13.588;2022-07-06T13:33:29;20.63;47.72
68977;SHT31;56029;52.568;13.588;2022-07-06T13:35:55;20.64;47.44
68977;SHT31;56029;52.568;13.588;2022-07-06T13:38:20;20.99;47.99
68977;SHT31;56029;52.568;13.588;2022-07-06T13:40:46;20.58;45.79
68977;SHT31;56029;52.568;13.588;2022-07-06T13:43:11;20.38;46.96
68977;SHT31;56029;52.568;13.588;2022-07-06T13:45:36;20.36;47.88
68977;SHT31;56029;52.568;13.588;2022-07-06T13:48:02;20.44;46.78
68977;SHT31;56029;52.568;13.588;2022-07-06T13:50:28;20.30;46.68
68977;SHT31;56029;52.568;13.588;2022-07-06T13:53:00;20.13;46.70
68977;SHT31;56029;52.568;13.588;2022-07-06T13:55:26;20.10;46.40
68977;SHT31;56029;52.568;13.588;2022-07-06T13:57:51;20.33;46.56
68977;SHT31;56029;52.568;13.588;2022-07-06T14:00:17;20.41;46.04
68977;SHT31;56029;52.568;13.588;2022-07-06T14:02:44;20.16;45.93
68977;SHT31;56029;52.568;13.588;2022-07-06T14:05:10;20.24;45.99
68977;SHT31;56029;52.568;13.588;2022-07-06T14:07:36;20.24;45.28
68977;SHT31;56029;52.568;13.588;2022-07-06T14:10:02;20.72;44.61
68977;SHT31;56029;52.568;13.588;2022-07-06T14:12:28;20.84;43.73
68977;SHT31;56029;52.568;13.588;2022-07-06T14:14:53;21.05;43.74
68977;SHT31;56029;52.568;13.588;2022-07-06T14:17:19;21.05;43.66
68977;SHT31;56029;52.568;13.588;2022-07-06T14:19:44;20.87;44.32
68977;SHT31;56029;52.568;13.588;2022-07-06T14:22:10;20.68;44.32
68977;SHT31;56029;52.568;13.588;2022-07-06T14:24:35;20.89;44.39
68977;SHT31;56029;52.568;13.588;2022-07-06T14:27:01;20.99;43.44
68977;SHT31;56029;52.568;13.588;2022-07-06T14:29:26;21.09;43.62
68977;SHT31;56029;52.568;13.588;2022-07-06T14:31:52;21.23;43.35
68977;SHT31;56029;52.568;13.588;2022-07-06T14:34:17;21.25;43.56
68977;SHT31;56029;52.568;13.588;2022-07-06T14:36:43;21.08;43.60
68977;SHT31;56029;52.568;13.588;2022-07-06T14:39:08;20.61;42.66
68977;SHT31;56029;52.568;13.588;2022-07-06T14:41:34;21.02;43.71
68977;SHT31;56029;52.568;13.588;2022-07-06T14:44:01;21.03;42.65
68977;SHT31;56029;52.568;13.588;2022-07-06T14:46:26;20.68;42.56
68977;SHT31;56029;52.568;13.588;2022-07-06T14:48:52;20.61;43.33
68977;SHT31;56029;52.568;13.588;2022-07-06T14:51:18;20.61;43.58
68977;SHT31;56029;52.568;13.588;2022-07-06T14:53:43;20.45;43.87
68977;SHT31;56029;52.568;13.588;2022-07-06T14:56:09;20.23;43.22
68977;SHT31;56029;52.568;13.588;2022-07-06T14:58:34;20.02;44.77
68977;SHT31;56029;52.568;13.588;2022-07-06T15:01:00;20.06;45.17
68977;SHT31;56029;52.568;13.588;2022-07-06T15:03:27;19.86;46.45
68977;SHT31;56029;52.568;13.588;2022-07-06T15:05:52;19.75;47.44
68977;SHT31;56029;52.568;13.588;2022-07-06T15:08:18;19.66;48.13
68977;SHT31;56029;52.568;13.588;2022-07-06T15:10:44;19.69;48.32
68977;SHT31;56029;52.568;13.588;2022-07-06T15:13:10;19.63;48.66
68977;SHT31;56029;52.568;13.588;2022-07-06T15:15:37;19.61;49.31
68977;SHT31;56029;52.568;13.588;2022-07-06T15:18:02;19.52;49.45
68977;SHT31;56029;52.568;13.588;2022-07-06T15:20:28;19.31;50.22
68977;SHT31;56029;52.568;13.588;2022-07-06T15:22:54;19.14;51.09
68977;SHT31;56029;52.568;13.588;2022-07-06T15:25:19;18.80;51.99
68977;SHT31;56029;52.568;13.588;2022-07-06T15:27:45;18.59;52.40